Time;durP1;ratioP1;P1;durP2;ratioP2;P2;SDS_P1;SDS_P2;PMS_P1;PMS_P2;Temp;Humidity;BMP_temperature;BMP_pressure;BME280_temperature;BME280_humidity;BME280_pressure;Samples;Min_cycle;Max_cycle;Signal;HPM_P1;HPM_P2
2023/06/09 00:02:09;;;;;;;20.55;17.80;;;;;;;16.34;100.00;100712.69;5020398;28;20460;-79
2023/06/09 00:04:36;;;;;;;21.92;17.95;;;;;;;16.32;100.00;100712.06;5021084;28;20113;-80
2023/06/09 00:07:05;;;;;;;21.50;17.77;;;;;;;16.23;100.00;100716.66;5020022;28;20094;-80
2023/06/09 00:09:32;;;;;;;20.55;17.67;;;;;;;16.26;100.00;100711.81;5027527;28;20046;-80
2023/06/09 00:11:59;;;;;;;20.45;17.60;;;;;;;16.19;100.00;100713.59;5027922;28;20084;-79
2023/06/09 00:14:25;;;;;;;20.42;16.92;;;;;;;16.17;100.00;100709.50;5028230;28;20046;-80
2023/06/09 00:16:59;;;;;;;18.08;16.27;;;;;;;16.15;100.00;100709.69;5028193;28;20076;-80
2023/06/09 00:19:27;;;;;;;18.88;16.90;;;;;;;16.12;100.00;100711.91;5026322;28;20133;-78
2023/06/09 00:21:53;;;;;;;19.17;17.15;;;;;;;16.09;100.00;100713.09;5028564;28;20419;-78
2023/06/09 00:24:23;;;;;;;23.83;16.58;;;;;;;16.08;100.00;100718.56;5027539;28;20163;-80
2023/06/09 00:26:50;;;;;;;18.73;16.83;;;;;;;16.04;100.00;100717.31;5024786;28;20133;-80
2023/06/09 00:29:19;;;;;;;18.55;16.58;;;;;;;16.00;100.00;100706.31;5023131;28;20077;-80
2023/06/09 00:31:46;;;;;;;19.13;17.23;;;;;;;15.97;100.00;100706.72;5022987;28;20559;-80
2023/06/09 00:34:13;;;;;;;19.60;17.50;;;;;;;15.92;100.00;100709.91;5020817;28;20101;-79
2023/06/09 00:36:40;;;;;;;19.55;17.65;;;;;;;15.87;100.00;100706.19;5022846;28;20129;-80
2023/06/09 00:39:07;;;;;;;19.63;17.63;;;;;;;15.76;100.00;100704.88;5021324;28;20102;-82
2023/06/09 00:41:37;;;;;;;20.17;17.83;;;;;;;15.73;100.00;100697.34;5021525;28;20109;-81
2023/06/09 00:44:04;;;;;;;20.52;17.17;;;;;;;15.77;100.00;100711.78;5024706;28;20137;-78
2023/06/09 00:46:32;;;;;;;20.02;17.42;;;;;;;15.84;100.00;100696.03;5023882;28;20138;-80
2023/06/09 00:48:58;;;;;;;18.88;16.98;;;;;;;15.83;100.00;100699.66;5021863;28;20046;-81
2023/06/09 00:51:26;;;;;;;19.20;17.23;;;;;;;15.81;100.00;100696.41;5021538;28;20183;-81
2023/06/09 00:53:52;;;;;;;17.88;16.10;;;;;;;15.77;100.00;100689.84;5020700;28;20565;-79
2023/06/09 00:56:23;;;;;;;19.15;17.15;;;;;;;15.74;100.00;100692.88;5020049;28;20045;-79
2023/06/09 00:58:51;;;;;;;19.02;17.02;;;;;;;15.78;100.00;100705.50;5019867;28;20076;-81
2023/06/09 01:01:18;;;;;;;21.10;17.33;;;;;;;15.72;100.00;100706.25;5019872;28;20084;-79
2023/06/09 01:03:46;;;;;;;18.85;16.95;;;;;;;15.69;100.00;100713.72;5019235;28;20080;-79
2023/06/09 01:06:26;;;;;;;20.33;18.33;;;;;;;15.60;100.00;100727.03;5020530;28;20050;-80
2023/06/09 01:08:57;;;;;;;20.20;18.10;;;;;;;15.59;100.00;100721.97;5020663;28;20041;-81
2023/06/09 01:11:31;;;;;;;20.83;18.73;;;;;;;15.56;100.00;100731.06;5020602;28;20544;-81
2023/06/09 01:14:09;;;;;;;22.08;18.05;;;;;;;15.53;100.00;100723.50;5020283;28;20435;-81
2023/06/09 01:16:42;;;;;;;22.23;19.88;;;;;;;15.48;100.00;100725.88;5021029;28;20348;-81
2023/06/09 01:19:15;;;;;;;;;;;;;;;15.46;100.00;100719.94;5021769;28;20108;-80
2023/06/09 01:21:44;;;;;;;25.02;19.50;;;;;;;15.42;100.00;100718.69;5020408;28;20144;-81
2023/06/09 01:24:19;;;;;;;22.60;20.20;;;;;;;15.46;100.00;100721.78;5019459;28;20136;-80
2023/06/09 01:26:50;;;;;;;21.90;19.40;;;;;;;15.43;100.00;100722.97;5020155;28;20081;-81
2023/06/09 01:29:20;;;;;;;23.63;20.67;;;;;;;15.45;100.00;100730.69;5018821;28;20045;-81
2023/06/09 01:31:48;;;;;;;23.67;20.90;;;;;;;15.40;100.00;100730.41;5019274;28;20046;-80
2023/06/09 01:34:15;;;;;;;22.50;20.13;;;;;;;15.36;100.00;100724.69;5021061;28;20567;-82
2023/06/09 01:36:42;;;;;;;22.90;20.00;;;;;;;15.36;100.00;100723.88;5020204;28;20152;-82
2023/06/09 01:39:10;;;;;;;23.23;20.75;;;;;;;15.30;100.00;100717.53;5015447;28;20485;-80
2023/06/09 01:41:37;;;;;;;23.60;20.73;;;;;;;15.30;100.00;100720.16;5016765;28;20054;-82
2023/06/09 01:44:05;;;;;;;24.40;20.73;;;;;;;15.24;100.00;100715.63;5020061;28;20129;-81
2023/06/09 01:46:31;;;;;;;23.52;20.75;;;;;;;15.25;100.00;100722.53;5020935;28;20106;-82
2023/06/09 01:49:06;;;;;;;23.40;21.00;;;;;;;15.17;100.00;100727.91;5021759;28;20113;-81
2023/06/09 01:51:41;;;;;;;22.17;19.50;;;;;;;15.21;100.00;100726.53;5023160;28;20054;-81
2023/06/09 01:54:10;;;;;;;26.67;20.25;;;;;;;15.12;100.00;100727.66;5023477;28;20128;-81
2023/06/09 01:56:41;;;;;;;22.52;19.45;;;;;;;15.07;100.00;100722.13;5024005;28;20081;-81
2023/06/09 01:59:14;;;;;;;25.20;20.40;;;;;;;14.99;100.00;100722.19;5025982;28;20073;-81
2023/06/09 02:01:45;;;;;;;22.88;19.48;;;;;;;14.93;100.00;100714.03;5027172;28;20061;-80
2023/06/09 02:04:14;;;;;;;22.55;20.02;;;;;;;14.94;100.00;100714.84;5027087;28;20431;-82
2023/06/09 02:06:41;;;;;;;22.50;20.05;;;;;;;14.94;100.00;100720.13;5027299;28;20110;-80
2023/06/09 02:09:09;;;;;;;26.60;21.45;;;;;;;14.82;100.00;100714.47;5032449;28;20073;-79
2023/06/09 02:11:37;;;;;;;26.33;20.45;;;;;;;14.83;100.00;100718.75;5031290;28;20050;-81
2023/06/09 02:14:03;;;;;;;27.33;21.13;;;;;;;14.82;100.00;100717.09;5028139;28;20117;-81
2023/06/09 02:16:31;;;;;;;28.10;21.65;;;;;;;14.80;100.00;100708.56;5031546;28;20085;-80
2023/06/09 02:18:59;;;;;;;25.52;21.13;;;;;;;14.79;100.00;100714.84;5031109;28;20073;-82
2023/06/09 02:21:25;;;;;;;25.73;19.75;;;;;;;14.74;100.00;100716.38;5025042;28;20205;-81
2023/06/09 02:23:52;;;;;;;25.55;20.30;;;;;;;14.73;100.00;100717.38;5024317;28;20477;-80
2023/06/09 02:26:18;;;;;;;23.13;20.73;;;;;;;14.68;100.00;100704.75;5024427;28;20106;-82
2023/06/09 02:28:45;;;;;;;26.10;21.35;;;;;;;14.66;100.00;100711.19;5023963;28;20073;-82
2023/06/09 02:31:12;;;;;;;31.25;23.08;;;;;;;14.57;100.00;100716.56;5024006;28;20053;-81
2023/06/09 02:33:40;;;;;;;26.63;22.55;;;;;;;14.52;100.00;100707.56;5026271;28;20405;-80
2023/06/09 02:36:06;;;;;;;26.15;22.60;;;;;;;14.49;100.00;100718.44;5026414;28;20049;-82
2023/06/09 02:38:33;;;;;;;31.50;22.55;;;;;;;14.52;100.00;100711.00;5025936;28;20103;-81
2023/06/09 02:40:59;;;;;;;28.77;22.02;;;;;;;14.51;100.00;100721.72;5025235;28;20073;-81
2023/06/09 02:43:26;;;;;;;24.08;21.23;;;;;;;14.50;100.00;100722.72;5025355;28;20050;-79
2023/06/09 02:45:53;;;;;;;24.48;21.58;;;;;;;14.49;100.00;100721.09;5025760;28;20107;-81
2023/06/09 02:48:19;;;;;;;23.42;20.40;;;;;;;14.51;100.00;100719.09;5025356;28;20096;-81
2023/06/09 02:50:47;;;;;;;26.88;21.13;;;;;;;14.51;100.00;100727.00;5025275;28;20062;-80
2023/06/09 02:53:14;;;;;;;24.35;21.63;;;;;;;14.44;100.00;100720.78;5024956;28;20061;-81
2023/06/09 02:55:44;;;;;;;27.25;21.50;;;;;;;14.36;100.00;100720.84;5024376;28;20085;-80
2023/06/09 02:58:14;;;;;;;24.40;21.73;;;;;;;14.32;100.00;100723.00;5024179;28;20058;-78
2023/06/09 03:00:41;;;;;;;29.23;21.67;;;;;;;14.33;100.00;100726.44;5025596;28;20046;-79
2023/06/09 03:03:08;;;;;;;29.23;21.85;;;;;;;14.36;100.00;100724.28;5025190;28;20081;-80
2023/06/09 03:05:35;;;;;;;23.33;20.42;;;;;;;14.37;100.00;100725.91;5023506;28;20084;-80
2023/06/09 03:08:02;;;;;;;27.58;21.10;;;;;;;14.40;100.00;100724.75;5021736;28;20046;-79
2023/06/09 03:10:29;;;;;;;27.70;20.10;;;;;;;14.39;100.00;100723.94;5018635;28;20109;-79
2023/06/09 03:12:56;;;;;;;24.13;21.52;;;;;;;14.38;100.00;100721.47;5019176;28;20136;-80
2023/06/09 03:15:22;;;;;;;29.75;21.50;;;;;;;14.41;100.00;100721.13;5019308;28;20141;-79
2023/06/09 03:17:49;;;;;;;29.38;22.60;;;;;;;14.37;100.00;100727.75;5018353;28;20137;-80
2023/06/09 03:20:15;;;;;;;29.60;22.73;;;;;;;14.34;100.00;100728.09;5020569;28;20459;-78
2023/06/09 03:22:42;;;;;;;23.92;21.30;;;;;;;14.35;100.00;100725.28;5019031;28;20073;-79
2023/06/09 03:25:10;;;;;;;23.90;21.08;;;;;;;14.31;100.00;100728.44;5018836;28;20464;-78
2023/06/09 03:27:37;;;;;;;25.60;21.25;;;;;;;14.29;100.00;100720.72;5028286;28;20157;-78
2023/06/09 03:30:04;;;;;;;24.83;19.92;;;;;;;14.32;100.00;100724.81;5028407;28;20046;-79
2023/06/09 03:32:31;;;;;;;23.33;19.42;;;;;;;14.26;100.00;100724.53;5025920;28;20053;-81
2023/06/09 03:34:57;;;;;;;31.60;19.52;;;;;;;14.21;100.00;100723.41;5018692;28;20164;-80
2023/06/09 03:37:24;;;;;;;30.20;19.90;;;;;;;14.11;100.00;100728.94;5019122;28;20088;-80
2023/06/09 03:39:50;;;;;;;25.40;19.75;;;;;;;14.21;100.00;100724.25;5018524;28;20109;-79
2023/06/09 03:42:18;;;;;;;25.80;20.05;;;;;;;14.32;100.00;100727.44;5018944;28;20086;-78
2023/06/09 03:44:45;;;;;;;25.98;20.88;;;;;;;14.16;100.00;100737.13;5018067;28;20054;-80
2023/06/09 03:47:12;;;;;;;23.17;19.63;;;;;;;14.21;100.00;100729.50;5017600;28;20089;-81
2023/06/09 03:49:38;;;;;;;25.45;20.30;;;;;;;14.24;100.00;100728.34;5018089;28;20520;-81
2023/06/09 03:52:06;;;;;;;23.48;20.85;;;;;;;14.30;100.00;100727.63;5017324;28;20141;-80
2023/06/09 03:54:34;;;;;;;25.55;21.17;;;;;;;14.34;100.00;100725.47;5016912;28;20053;-81
2023/06/09 03:57:00;;;;;;;24.85;19.67;;;;;;;14.41;100.00;100729.03;5017699;28;20128;-80
2023/06/09 03:59:28;;;;;;;23.25;20.80;;;;;;;14.57;100.00;100734.19;5016768;28;20190;-80
2023/06/09 04:01:55;;;;;;;22.85;20.45;;;;;;;14.77;100.00;100730.00;5016460;28;20132;-80
2023/06/09 04:04:21;;;;;;;26.38;21.13;;;;;;;15.44;100.00;100737.78;5016218;28;20081;-82
2023/06/09 04:06:48;;;;;;;23.42;19.40;;;;;;;16.01;100.00;100733.53;5016255;28;20168;-81
2023/06/09 04:09:15;;;;;;;25.05;18.50;;;;;;;16.78;100.00;100731.72;5016551;28;20046;-80
2023/06/09 04:11:42;;;;;;;21.90;16.83;;;;;;;17.44;100.00;100732.06;5017212;28;20137;-80
2023/06/09 04:14:09;;;;;;;20.75;16.83;;;;;;;17.79;98.58;100724.03;5016713;28;20077;-81
2023/06/09 04:16:37;;;;;;;18.33;15.88;;;;;;;18.16;95.47;100718.16;5017507;28;20105;-80
2023/06/09 04:19:04;;;;;;;19.83;17.67;;;;;;;18.14;94.06;100709.59;5019983;28;20053;-82
2023/06/09 04:21:31;;;;;;;20.77;15.60;;;;;;;18.47;92.63;100706.91;5019987;28;20077;-80
2023/06/09 04:23:57;;;;;;;19.50;15.82;;;;;;;18.73;90.96;100708.75;5019599;28;20456;-80
2023/06/09 04:26:24;;;;;;;21.90;16.63;;;;;;;19.14;89.70;100694.34;5019756;28;20109;-79
2023/06/09 04:28:53;;;;;;;20.10;15.93;;;;;;;19.11;88.43;100702.72;5021394;28;20420;-79
2023/06/09 04:31:23;;;;;;;18.02;16.08;;;;;;;18.79;88.05;100702.63;5021621;28;20414;-80
2023/06/09 04:33:51;;;;;;;20.42;16.48;;;;;;;18.46;89.20;100704.47;5013058;28;20528;-79
2023/06/09 04:36:18;;;;;;;17.67;15.88;;;;;;;18.34;90.18;100711.44;5020423;28;20056;-82
2023/06/09 04:38:45;;;;;;;19.40;17.30;;;;;;;18.14;91.41;100709.59;5019951;28;20053;-80
2023/06/09 04:41:12;;;;;;;19.13;17.20;;;;;;;18.08;92.23;100714.88;5020928;28;20045;-80
2023/06/09 04:43:41;;;;;;;18.35;16.40;;;;;;;18.18;92.50;100715.31;5020841;28;20573;-80
2023/06/09 04:46:07;;;;;;;20.70;17.48;;;;;;;18.74;91.89;100712.22;5022323;28;20085;-79
2023/06/09 04:48:35;;;;;;;20.65;18.02;;;;;;;18.84;90.29;100702.81;5020887;28;20058;-79
2023/06/09 04:51:03;;;;;;;19.50;17.60;;;;;;;18.78;90.59;100698.34;5021756;28;20046;-79
2023/06/09 04:53:29;;;;;;;19.70;17.70;;;;;;;18.73;90.87;100698.16;5023136;28;20069;-79
2023/06/09 04:55:56;;;;;;;19.08;16.48;;;;;;;18.72;91.23;100693.88;5023635;28;20137;-80
2023/06/09 04:58:23;;;;;;;20.45;16.50;;;;;;;18.80;90.56;100698.97;5022720;28;20061;-79
2023/06/09 05:00:51;;;;;;;18.63;16.58;;;;;;;19.07;89.73;100701.50;5019947;28;20519;-78
2023/06/09 05:03:18;;;;;;;20.88;17.45;;;;;;;19.33;88.25;100696.09;5021744;28;20046;-80
2023/06/09 05:05:44;;;;;;;18.73;16.80;;;;;;;19.05;88.32;100699.06;5023773;28;20442;-78
2023/06/09 05:08:14;;;;;;;23.13;16.80;;;;;;;19.16;88.40;100700.25;5023956;28;20049;-77
2023/06/09 05:10:41;;;;;;;19.27;17.33;;;;;;;19.17;87.95;100707.19;5022815;28;20132;-79
2023/06/09 05:13:08;;;;;;;20.00;17.92;;;;;;;18.85;88.05;100714.25;5021516;28;20144;-78
2023/06/09 05:15:35;;;;;;;22.75;17.73;;;;;;;19.10;88.52;100717.00;5021278;28;20125;-79
2023/06/09 05:18:02;;;;;;;19.17;17.17;;;;;;;19.37;88.32;100723.03;5021681;28;20050;-78
2023/06/09 05:20:29;;;;;;;26.60;17.63;;;;;;;20.05;86.99;100715.28;5019183;28;20105;-79
2023/06/09 05:22:55;;;;;;;19.02;16.40;;;;;;;20.70;84.68;100713.09;5020098;28;20050;-77
2023/06/09 05:25:24;;;;;;;17.90;16.13;;;;;;;21.60;80.93;100716.72;5020373;28;20449;-79
2023/06/09 05:27:51;;;;;;;19.00;15.73;;;;;;;22.43;77.45;100710.53;5023167;28;20049;-79
2023/06/09 05:30:17;;;;;;;16.27;14.68;;;;;;;23.35;74.29;100710.59;5023090;28;20053;-79
2023/06/09 05:32:44;;;;;;;17.10;14.70;;;;;;;23.61;71.86;100699.38;5012113;28;20056;-79
2023/06/09 05:35:11;;;;;;;15.30;13.90;;;;;;;24.35;70.33;100704.63;5021496;28;20053;-79
2023/06/09 05:37:48;;;;;;;15.52;13.85;;;;;;;24.98;68.79;100703.34;5022983;28;20131;-80
2023/06/09 05:40:15;;;;;;;15.57;14.07;;;;;;;25.09;67.10;100692.50;5014161;28;20130;-78
2023/06/09 05:42:43;;;;;;;15.90;13.75;;;;;;;24.71;67.70;100705.91;5023506;28;20133;-80
2023/06/09 05:45:10;;;;;;;15.70;13.65;;;;;;;25.30;66.48;100706.94;5023764;28;20062;-80
2023/06/09 05:47:37;;;;;;;16.23;13.15;;;;;;;25.58;65.61;100697.84;5020459;28;20058;-80
2023/06/09 05:50:05;;;;;;;16.30;13.10;;;;;;;26.09;63.74;100709.03;5019763;28;20088;-82
2023/06/09 05:52:31;;;;;;;14.32;12.43;;;;;;;25.79;64.12;100705.03;5021878;28;20512;-79
2023/06/09 05:54:58;;;;;;;14.32;12.68;;;;;;;25.68;64.75;100697.16;5020248;28;20164;-79
2023/06/09 05:57:25;;;;;;;13.45;12.10;;;;;;;25.42;65.28;100699.56;5017953;28;20484;-79
2023/06/09 05:59:53;;;;;;;16.35;13.52;;;;;;;25.92;64.84;100703.81;5018222;28;20042;-80
2023/06/09 06:02:20;;;;;;;14.30;12.20;;;;;;;26.24;63.41;100689.56;5019689;28;20050;-79
2023/06/09 06:04:46;;;;;;;13.25;11.95;;;;;;;26.16;62.82;100698.06;5018916;28;20136;-79
2023/06/09 06:07:14;;;;;;;13.18;12.00;;;;;;;26.31;62.75;100690.19;5020191;28;20109;-80
2023/06/09 06:09:40;;;;;;;13.32;12.02;;;;;;;25.92;62.04;100698.44;5018885;28;20111;-78
2023/06/09 06:12:07;;;;;;;16.20;13.10;;;;;;;26.43;62.50;100693.47;5018193;28;20081;-78
2023/06/09 06:14:34;;;;;;;19.52;12.90;;;;;;;26.02;62.22;100693.16;5018103;28;20049;-79
2023/06/09 06:17:02;;;;;;;13.80;12.25;;;;;;;26.96;61.75;100703.13;5017243;28;20077;-79
2023/06/09 06:19:29;;;;;;;15.57;12.38;;;;;;;27.40;60.81;100698.19;5018022;28;20520;-80
2023/06/09 06:21:55;;;;;;;13.40;12.10;;;;;;;27.24;60.33;100696.53;5019306;28;20061;-80
2023/06/09 06:24:22;;;;;;;13.18;11.65;;;;;;;28.09;58.98;100695.00;5018974;28;20110;-81
2023/06/09 06:26:49;;;;;;;12.55;10.00;;;;;;;27.18;59.29;100702.97;5019142;28;20476;-80
2023/06/09 06:29:16;;;;;;;13.15;9.90;;;;;;;27.44;58.78;100693.88;5018814;28;20054;-77
2023/06/09 06:31:42;;;;;;;15.02;10.80;;;;;;;27.25;58.30;100700.03;5017516;28;20100;-77
2023/06/09 06:34:22;;;;;;;11.18;10.07;;;;;;;27.97;57.22;100690.97;5019308;28;20118;-83
2023/06/09 06:36:48;;;;;;;10.65;9.65;;;;;;;27.85;56.32;100693.16;5008483;28;20054;-81
2023/06/09 06:39:15;;;;;;;10.45;9.35;;;;;;;27.50;56.41;100681.25;5017349;28;20132;-79
2023/06/09 06:41:41;;;;;;;10.13;9.13;;;;;;;27.43;57.42;100692.25;5017584;28;20081;-79
2023/06/09 06:44:08;;;;;;;13.13;9.55;;;;;;;26.13;57.26;100681.44;5016496;28;20120;-82
2023/06/09 06:46:35;;;;;;;9.98;9.02;;;;;;;26.21;59.34;100701.59;5015978;28;20463;-86
2023/06/09 06:49:02;;;;;;;10.82;8.68;;;;;;;27.38;58.12;100689.59;5017001;28;20443;-79
2023/06/09 06:51:30;;;;;;;9.98;8.60;;;;;;;27.54;56.77;100687.72;5017479;28;20113;-79
2023/06/09 06:53:56;;;;;;;9.40;7.93;;;;;;;28.25;54.13;100671.63;5009099;28;20479;-81
2023/06/09 06:56:24;;;;;;;9.07;8.07;;;;;;;26.88;55.75;100671.41;5023506;28;20129;-82
2023/06/09 06:58:51;;;;;;;8.75;7.95;;;;;;;26.21;58.16;100698.13;5017755;28;20100;-80
2023/06/09 07:01:20;;;;;;;9.15;8.25;;;;;;;26.43;57.42;100682.75;5018594;28;20141;-81
2023/06/09 07:03:50;;;;;;;10.13;8.57;;;;;;;25.92;57.91;100692.28;5022685;28;20072;-85
2023/06/09 07:06:17;;;;;;;8.88;7.95;;;;;;;26.43;57.60;100688.09;5014223;28;20092;-80
2023/06/09 07:08:45;;;;;;;10.15;8.95;;;;;;;26.50;56.84;100682.50;5020579;28;20054;-82
2023/06/09 07:11:12;;;;;;;9.93;9.02;;;;;;;26.92;57.02;100683.25;5018074;28;20056;-80
2023/06/09 07:13:39;;;;;;;9.82;8.43;;;;;;;27.95;55.10;100675.09;5021291;28;20046;-81
2023/06/09 07:16:06;;;;;;;9.40;8.52;;;;;;;27.37;55.01;100682.59;5019432;28;20057;-81
2023/06/09 07:18:32;;;;;;;10.50;9.40;;;;;;;27.33;55.53;100686.88;5023013;28;20128;-79
2023/06/09 07:20:59;;;;;;;10.10;8.85;;;;;;;27.03;56.50;100687.59;5019864;28;20057;-78
2023/06/09 07:23:25;;;;;;;10.57;9.10;;;;;;;27.88;55.83;100693.44;5021730;28;20060;-81
2023/06/09 07:25:53;;;;;;;10.25;8.98;;;;;;;28.70;52.92;100676.06;5024747;28;20145;-80
2023/06/09 07:28:20;;;;;;;10.73;9.00;;;;;;;28.92;52.58;100680.28;5023682;28;20121;-79
2023/06/09 07:30:46;;;;;;;10.50;9.27;;;;;;;28.06;54.13;100689.34;5022842;28;20080;-81
2023/06/09 07:33:16;;;;;;;11.68;9.70;;;;;;;28.41;53.52;100683.94;5020636;28;20110;-81
2023/06/09 07:35:42;;;;;;;9.73;8.73;;;;;;;28.31;52.66;100667.84;5024788;28;20081;-82
2023/06/09 07:38:09;;;;;;;10.18;9.15;;;;;;;27.15;55.01;100683.88;5020035;28;20057;-79
2023/06/09 07:40:36;;;;;;;10.80;8.93;;;;;;;27.77;54.10;100670.28;5019148;28;20078;-81
2023/06/09 07:43:04;;;;;;;10.02;9.00;;;;;;;28.38;52.96;100681.00;5021575;28;20138;-79
2023/06/09 07:45:30;;;;;;;10.07;8.82;;;;;;;27.95;53.86;100671.59;5019872;28;20057;-80
2023/06/09 07:47:58;;;;;;;10.43;8.32;;;;;;;27.24;54.71;100677.72;5022353;28;20057;-80
2023/06/09 07:50:24;;;;;;;9.30;8.40;;;;;;;28.50;52.37;100667.22;5023700;28;20145;-81
2023/06/09 07:52:52;;;;;;;10.90;9.18;;;;;;;28.17;52.65;100663.25;5025073;28;20088;-81
2023/06/09 07:55:19;;;;;;;9.80;8.80;;;;;;;28.36;53.28;100667.81;5019579;28;20116;-78
2023/06/09 07:58:09;;;;;;;12.85;8.88;;;;;;;27.27;53.24;100658.38;5020159;28;20049;-82
2023/06/09 08:00:50;;;;;;;9.60;8.70;;;;;;;27.19;53.71;100656.22;5026502;28;20061;-81
2023/06/09 08:03:26;;;;;;;11.75;8.45;;;;;;;27.63;53.74;100669.19;5021477;28;20076;-80
2023/06/09 08:05:56;;;;;;;9.77;8.57;;;;;;;28.52;53.55;100657.81;5029880;28;20042;-81
2023/06/09 08:08:22;;;;;;;9.88;8.98;;;;;;;27.29;52.82;100664.31;5024998;28;20050;-81
2023/06/09 08:10:58;;;;;;;10.10;8.88;;;;;;;28.27;51.97;100663.28;5028233;28;20085;-79
2023/06/09 08:13:25;;;;;;;11.38;8.98;;;;;;;27.88;52.64;100671.91;5022266;28;20570;-81
2023/06/09 08:15:53;;;;;;;9.85;8.70;;;;;;;27.70;52.89;100667.88;5024154;28;20050;-79
2023/06/09 08:18:20;;;;;;;11.00;8.90;;;;;;;27.58;53.83;100679.91;5021669;28;20192;-81
2023/06/09 08:20:47;;;;;;;12.88;9.45;;;;;;;27.77;53.86;100670.28;5023280;28;20080;-81
2023/06/09 08:23:15;;;;;;;11.25;9.07;;;;;;;29.53;51.66;100669.97;5014391;28;20050;-81
2023/06/09 08:25:42;;;;;;;9.73;8.63;;;;;;;29.40;52.21;100670.59;5022130;28;20056;-79
2023/06/09 08:28:09;;;;;;;10.73;8.60;;;;;;;28.32;51.53;100655.19;5022038;28;20042;-80
2023/06/09 08:30:35;;;;;;;9.40;8.40;;;;;;;28.63;52.55;100664.78;5019789;28;20056;-81
2023/06/09 08:33:03;;;;;;;11.30;8.65;;;;;;;28.46;51.46;100655.41;5014992;28;20076;-81
2023/06/09 08:35:32;;;;;;;9.70;8.70;;;;;;;27.36;53.63;100658.69;5013017;28;20046;-81
2023/06/09 08:37:58;;;;;;;10.30;9.07;;;;;;;28.49;53.39;100661.03;5014232;28;20084;-82
2023/06/09 08:40:27;;;;;;;11.20;8.75;;;;;;;28.14;52.42;100647.66;5013844;28;20057;-81
2023/06/09 08:42:56;;;;;;;10.98;8.70;;;;;;;29.59;51.78;100654.59;5013324;28;20077;-83
2023/06/09 08:45:23;;;;;;;11.23;8.95;;;;;;;29.75;49.76;100639.88;5015879;28;20046;-84
2023/06/09 08:47:54;;;;;;;9.98;8.60;;;;;;;28.38;51.37;100643.31;5015516;28;20054;-82
2023/06/09 08:50:25;;;;;;;9.30;8.50;;;;;;;29.42;51.70;100651.47;5018872;28;20054;-83
2023/06/09 08:52:55;;;;;;;9.40;8.48;;;;;;;28.60;51.07;100648.38;5019344;28;20058;-80
2023/06/09 08:55:22;;;;;;;10.40;8.50;;;;;;;28.99;50.80;100643.09;5023738;28;20103;-81
2023/06/09 08:57:49;;;;;;;11.15;9.02;;;;;;;29.55;50.30;100640.84;5024568;28;20073;-82
2023/06/09 09:00:17;;;;;;;12.15;8.30;;;;;;;29.80;52.06;100647.91;5029228;28;20064;-80
2023/06/09 09:02:44;;;;;;;9.23;8.38;;;;;;;29.21;50.26;100637.31;5030438;28;20069;-80
2023/06/09 09:05:10;;;;;;;9.20;8.20;;;;;;;29.39;49.32;100634.72;5032787;28;20045;-81
2023/06/09 09:07:40;;;;;;;12.63;8.63;;;;;;;28.33;51.41;100641.47;5021470;28;20401;-82
2023/06/09 09:10:07;;;;;;;10.02;9.02;;;;;;;28.41;51.51;100640.88;5016323;28;20053;-81
2023/06/09 09:12:48;;;;;;;9.93;8.93;;;;;;;29.23;51.20;100643.22;5018976;28;20134;-82
2023/06/09 09:15:15;;;;;;;9.48;8.35;;;;;;;29.68;49.95;100634.81;5018255;28;20057;-83
2023/06/09 09:17:41;;;;;;;8.88;8.02;;;;;;;29.62;49.44;100632.44;5015709;28;20515;-82
2023/06/09 09:20:09;;;;;;;9.70;8.18;;;;;;;29.34;50.03;100626.69;5019134;28;20591;-82
2023/06/09 09:22:46;;;;;;;8.98;8.05;;;;;;;28.49;51.37;100634.13;5019082;28;20054;-84
2023/06/09 09:25:21;;;;;;;10.00;8.60;;;;;;;28.67;52.11;100635.41;5018340;28;20117;-84
2023/06/09 09:28:03;;;;;;;10.15;8.52;;;;;;;27.99;52.51;100641.22;5017534;28;20084;-84
2023/06/09 09:30:47;;;;;;;11.23;8.38;;;;;;;28.94;51.28;100629.66;5019779;28;20518;-84
2023/06/09 09:33:16;;;;;;;10.93;8.27;;;;;;;29.77;50.38;100628.81;5015279;28;20076;-83
2023/06/09 09:35:46;;;;;;;9.60;8.68;;;;;;;29.42;50.01;100632.59;5019420;28;20428;-82
2023/06/09 09:38:17;;;;;;;9.70;8.77;;;;;;;29.76;50.21;100629.91;5012588;28;20053;-85
2023/06/09 09:40:48;;;;;;;9.05;8.25;;;;;;;29.62;49.62;100613.56;5010455;28;20041;-84
2023/06/09 09:43:15;;;;;;;10.25;7.80;;;;;;;29.82;49.27;100605.28;5015271;28;20080;-83
2023/06/09 09:45:44;;;;;;;9.07;8.20;;;;;;;28.82;50.41;100615.72;5018169;28;20602;-83
2023/06/09 09:48:12;;;;;;;9.18;8.18;;;;;;;28.61;51.39;100615.78;5016784;28;20133;-81
2023/06/09 09:50:39;;;;;;;9.43;7.65;;;;;;;29.18;50.14;100609.03;5019672;28;20056;-84
2023/06/09 09:53:07;;;;;;;10.88;8.13;;;;;;;28.42;50.57;100612.09;5019684;28;20085;-80
2023/06/09 09:55:36;;;;;;;12.57;8.25;;;;;;;29.47;51.74;100627.97;5018686;28;20128;-79
2023/06/09 09:58:06;;;;;;;11.30;8.25;;;;;;;29.61;49.46;100603.88;5019540;28;20118;-83
2023/06/09 10:00:35;;;;;;;9.43;8.00;;;;;;;28.66;50.39;100601.50;5019285;28;20046;-82
2023/06/09 10:03:06;;;;;;;8.02;7.32;;;;;;;28.19;49.77;100591.97;5018609;28;20510;-82
2023/06/09 10:05:34;;;;;;;8.00;7.25;;;;;;;28.24;50.03;100593.88;5013751;28;20081;-82
2023/06/09 10:08:05;;;;;;;8.23;7.00;;;;;;;27.69;50.83;100603.63;5020076;28;20136;-79
2023/06/09 10:10:32;;;;;;;8.55;7.63;;;;;;;27.44;50.72;100599.81;5020519;28;20053;-81
2023/06/09 10:13:02;;;;;;;9.15;7.57;;;;;;;27.59;51.71;100599.03;5026230;28;20437;-80
2023/06/09 10:15:30;;;;;;;8.60;7.20;;;;;;;27.31;51.44;100607.63;5025942;28;20077;-79
2023/06/09 10:17:58;;;;;;;8.60;7.28;;;;;;;27.40;51.35;100601.44;5025375;28;20084;-79
2023/06/09 10:20:24;;;;;;;10.30;6.97;;;;;;;27.59;50.64;100598.25;5027142;28;20072;-79
2023/06/09 10:22:52;;;;;;;7.47;6.78;;;;;;;27.91;50.52;100593.34;5024659;28;20046;-81
2023/06/09 10:25:20;;;;;;;7.78;6.97;;;;;;;28.11;49.56;100581.75;5026652;28;20069;-81
2023/06/09 10:27:50;;;;;;;9.85;6.82;;;;;;;28.32;50.47;100594.09;5022558;28;20056;-80
2023/06/09 10:30:19;;;;;;;8.20;6.68;;;;;;;28.08;49.72;100575.03;5014625;28;20113;-82
2023/06/09 10:32:52;;;;;;;8.75;6.80;;;;;;;28.42;50.22;100585.16;5019568;28;20259;-79
2023/06/09 10:35:24;;;;;;;10.77;6.93;;;;;;;27.80;50.48;100589.09;5019758;28;20048;-79
2023/06/09 10:37:51;;;;;;;10.55;7.30;;;;;;;28.60;49.20;100583.75;5017795;28;20096;-78
2023/06/09 10:40:30;;;;;;;8.73;7.20;;;;;;;28.17;48.45;100572.59;5017652;28;20553;-80
2023/06/09 10:43:20;;;;;;;7.28;6.50;;;;;;;29.00;49.32;100583.53;5019607;28;20132;-81
2023/06/09 10:45:53;;;;;;;7.47;6.78;;;;;;;28.22;49.77;100579.88;5017530;28;20050;-80
2023/06/09 10:48:42;;;;;;;9.70;7.35;;;;;;;28.36;49.66;100575.50;5017416;28;20068;-80
2023/06/09 10:51:40;;;;;;;8.55;7.18;;;;;;;28.38;49.44;100576.03;5009449;28;20068;-77
2023/06/09 10:56:52;;;;;;;8.38;6.50;;;;;;;28.47;48.84;100558.22;5033604;23;20058;-79
2023/06/09 10:59:57;;;;;;;8.27;6.35;;;;;;;28.43;48.05;100559.88;5038689;28;20119;-79
2023/06/09 11:02:26;;;;;;;7.80;6.47;;;;;;;28.75;47.94;100559.44;5038151;28;20065;-79
2023/06/09 11:04:53;;;;;;;8.20;6.90;;;;;;;28.72;47.28;100554.63;5034304;28;20037;-77
2023/06/09 11:07:22;;;;;;;10.65;6.80;;;;;;;28.73;48.03;100562.41;5020755;28;20049;-77
2023/06/09 11:10:33;;;;;;;7.25;6.55;;;;;;;28.54;48.59;100558.75;5020377;28;20050;-78
2023/06/09 11:12:59;;;;;;;7.15;6.45;;;;;;;28.73;48.33;100570.50;5026124;28;20092;-79
2023/06/09 11:16:01;;;;;;;8.43;7.53;;;;;;;28.66;48.63;100558.41;5012692;28;20084;-79
2023/06/09 11:18:30;;;;;;;9.25;6.78;;;;;;;28.20;48.27;100555.09;5006663;28;20050;-85
2023/06/09 11:21:10;;;;;;;9.93;6.68;;;;;;;28.57;48.23;100560.88;5009427;28;20065;-78
2023/06/09 11:24:08;;;;;;;8.60;6.88;;;;;;;28.73;48.17;100559.72;5010298;28;20504;-78